sensor_id;sensor_type;location;lat;lon;timestamp;P1;durP1;ratioP1;P2;durP2;ratioP2
75997;SDS011;64685;48.762;44.822;2023-06-04T00:00:09;9.90;;;4.63;;
75997;SDS011;64685;48.762;44.822;2023-06-04T00:05:13;9.40;;;4.97;;
75997;SDS011;64685;48.762;44.822;2023-06-04T00:10:15;10.10;;;5.30;;
75997;SDS011;64685;48.762;44.822;2023-06-04T00:15:18;10.15;;;5.43;;
75997;SDS011;64685;48.762;44.822;2023-06-04T00:20:20;13.10;;;4.30;;
75997;SDS011;64685;48.762;44.822;2023-06-04T00:25:23;9.27;;;4.25;;
75997;SDS011;64685;48.762;44.822;2023-06-04T00:30:25;9.95;;;4.72;;
75997;SDS011;64685;48.762;44.822;2023-06-04T00:35:28;8.13;;;4.15;;
75997;SDS011;64685;48.762;44.822;2023-06-04T00:40:30;8.43;;;4.05;;
75997;SDS011;64685;48.762;44.822;2023-06-04T00:45:33;6.82;;;3.80;;
75997;SDS011;64685;48.762;44.822;2023-06-04T00:50:36;9.48;;;4.75;;
75997;SDS011;64685;48.762;44.822;2023-06-04T00:55:41;9.32;;;4.45;;
75997;SDS011;64685;48.762;44.822;2023-06-04T01:00:44;10.35;;;5.65;;
75997;SDS011;64685;48.762;44.822;2023-06-04T01:06:01;9.98;;;5.70;;
75997;SDS011;64685;48.762;44.822;2023-06-04T01:11:35;12.15;;;7.15;;
75997;SDS011;64685;48.762;44.822;2023-06-04T01:16:58;12.70;;;7.45;;
75997;SDS011;64685;48.762;44.822;2023-06-04T01:22:08;16.23;;;8.55;;
75997;SDS011;64685;48.762;44.822;2023-06-04T01:27:18;13.02;;;7.45;;
75997;SDS011;64685;48.762;44.822;2023-06-04T01:32:21;20.50;;;10.00;;
75997;SDS011;64685;48.762;44.822;2023-06-04T01:37:24;15.32;;;9.32;;
75997;SDS011;64685;48.762;44.822;2023-06-04T01:42:28;14.40;;;9.60;;
75997;SDS011;64685;48.762;44.822;2023-06-04T01:47:30;14.38;;;8.30;;
75997;SDS011;64685;48.762;44.822;2023-06-04T01:52:33;11.05;;;6.35;;
75997;SDS011;64685;48.762;44.822;2023-06-04T01:57:35;9.50;;;5.20;;
75997;SDS011;64685;48.762;44.822;2023-06-04T02:02:38;9.57;;;4.57;;
75997;SDS011;64685;48.762;44.822;2023-06-04T02:07:45;10.70;;;5.20;;
75997;SDS011;64685;48.762;44.822;2023-06-04T02:12:54;8.52;;;4.75;;
75997;SDS011;64685;48.762;44.822;2023-06-04T02:17:59;10.35;;;5.22;;
75997;SDS011;64685;48.762;44.822;2023-06-04T02:23:38;9.77;;;5.50;;
75997;SDS011;64685;48.762;44.822;2023-06-04T02:28:40;11.65;;;5.78;;
75997;SDS011;64685;48.762;44.822;2023-06-04T02:33:43;10.65;;;5.35;;
75997;SDS011;64685;48.762;44.822;2023-06-04T02:38:45;8.77;;;4.70;;
75997;SDS011;64685;48.762;44.822;2023-06-04T02:43:48;9.43;;;5.25;;
75997;SDS011;64685;48.762;44.822;2023-06-04T02:48:51;9.65;;;4.93;;
75997;SDS011;64685;48.762;44.822;2023-06-04T02:53:53;8.25;;;5.07;;
75997;SDS011;64685;48.762;44.822;2023-06-04T02:58:56;9.02;;;4.82;;
75997;SDS011;64685;48.762;44.822;2023-06-04T03:03:59;10.73;;;4.97;;
75997;SDS011;64685;48.762;44.822;2023-06-04T03:09:05;8.73;;;4.97;;
75997;SDS011;64685;48.762;44.822;2023-06-04T03:14:09;9.80;;;5.07;;
75997;SDS011;64685;48.762;44.822;2023-06-04T03:19:12;9.23;;;5.35;;
75997;SDS011;64685;48.762;44.822;2023-06-04T03:24:15;10.73;;;5.80;;
75997;SDS011;64685;48.762;44.822;2023-06-04T03:29:17;11.68;;;5.70;;
75997;SDS011;64685;48.762;44.822;2023-06-04T03:34:22;10.82;;;6.65;;
75997;SDS011;64685;48.762;44.822;2023-06-04T03:39:27;10.85;;;6.15;;
75997;SDS011;64685;48.762;44.822;2023-06-04T03:44:32;9.27;;;5.22;;
75997;SDS011;64685;48.762;44.822;2023-06-04T03:49:35;9.82;;;6.03;;
75997;SDS011;64685;48.762;44.822;2023-06-04T03:54:37;8.60;;;5.38;;
75997;SDS011;64685;48.762;44.822;2023-06-04T03:59:40;11.40;;;6.47;;
75997;SDS011;64685;48.762;44.822;2023-06-04T04:04:43;11.25;;;6.90;;
75997;SDS011;64685;48.762;44.822;2023-06-04T04:09:46;10.38;;;6.38;;
75997;SDS011;64685;48.762;44.822;2023-06-04T04:14:49;10.80;;;6.22;;
75997;SDS011;64685;48.762;44.822;2023-06-04T04:19:52;9.98;;;6.43;;
75997;SDS011;64685;48.762;44.822;2023-06-04T04:24:54;9.93;;;6.07;;
75997;SDS011;64685;48.762;44.822;2023-06-04T04:29:57;10.32;;;6.15;;
75997;SDS011;64685;48.762;44.822;2023-06-04T04:35:06;10.13;;;5.60;;
75997;SDS011;64685;48.762;44.822;2023-06-04T04:40:12;9.63;;;5.53;;
75997;SDS011;64685;48.762;44.822;2023-06-04T04:45:20;9.70;;;5.13;;
75997;SDS011;64685;48.762;44.822;2023-06-04T04:50:26;10.25;;;6.05;;
75997;SDS011;64685;48.762;44.822;2023-06-04T04:55:29;11.48;;;6.43;;
75997;SDS011;64685;48.762;44.822;2023-06-04T05:00:32;10.82;;;5.97;;
75997;SDS011;64685;48.762;44.822;2023-06-04T05:05:36;10.43;;;6.00;;
75997;SDS011;64685;48.762;44.822;2023-06-04T05:10:40;11.05;;;6.60;;
75997;SDS011;64685;48.762;44.822;2023-06-04T05:15:44;11.43;;;6.85;;
75997;SDS011;64685;48.762;44.822;2023-06-04T05:20:50;12.90;;;6.82;;
75997;SDS011;64685;48.762;44.822;2023-06-04T05:25:53;12.40;;;7.28;;
75997;SDS011;64685;48.762;44.822;2023-06-04T05:30:56;11.30;;;6.70;;
75997;SDS011;64685;48.762;44.822;2023-06-04T05:36:06;11.73;;;7.63;;
75997;SDS011;64685;48.762;44.822;2023-06-04T05:41:15;12.23;;;7.15;;
75997;SDS011;64685;48.762;44.822;2023-06-04T05:46:18;13.98;;;8.35;;
75997;SDS011;64685;48.762;44.822;2023-06-04T05:51:21;13.88;;;8.20;;
75997;SDS011;64685;48.762;44.822;2023-06-04T05:56:24;18.08;;;11.98;;
75997;SDS011;64685;48.762;44.822;2023-06-04T06:01:30;21.83;;;11.80;;
75997;SDS011;64685;48.762;44.822;2023-06-04T06:06:32;19.00;;;13.45;;
75997;SDS011;64685;48.762;44.822;2023-06-04T06:11:36;20.23;;;10.70;;
75997;SDS011;64685;48.762;44.822;2023-06-04T06:16:39;10.38;;;7.57;;
75997;SDS011;64685;48.762;44.822;2023-06-04T06:21:42;8.60;;;5.13;;
75997;SDS011;64685;48.762;44.822;2023-06-04T06:31:49;11.10;;;5.60;;
75997;SDS011;64685;48.762;44.822;2023-06-04T06:36:52;9.65;;;6.88;;
75997;SDS011;64685;48.762;44.822;2023-06-04T06:41:54;11.15;;;6.55;;
75997;SDS011;64685;48.762;44.822;2023-06-04T06:47:01;9.30;;;6.32;;
75997;SDS011;64685;48.762;44.822;2023-06-04T06:52:03;10.57;;;6.32;;
75997;SDS011;64685;48.762;44.822;2023-06-04T06:57:06;8.88;;;5.97;;
75997;SDS011;64685;48.762;44.822;2023-06-04T07:02:10;10.70;;;6.20;;
75997;SDS011;64685;48.762;44.822;2023-06-04T07:07:13;9.10;;;5.40;;
75997;SDS011;64685;48.762;44.822;2023-06-04T07:12:19;10.55;;;5.32;;
75997;SDS011;64685;48.762;44.822;2023-06-04T07:17:22;11.60;;;5.45;;
75997;SDS011;64685;48.762;44.822;2023-06-04T07:22:24;9.82;;;5.40;;
75997;SDS011;64685;48.762;44.822;2023-06-04T07:27:27;8.75;;;4.93;;
75997;SDS011;64685;48.762;44.822;2023-06-04T07:32:30;11.23;;;4.78;;
75997;SDS011;64685;48.762;44.822;2023-06-04T07:37:32;9.88;;;4.70;;
75997;SDS011;64685;48.762;44.822;2023-06-04T07:42:35;9.07;;;4.50;;
75997;SDS011;64685;48.762;44.822;2023-06-04T07:47:37;9.63;;;4.80;;
75997;SDS011;64685;48.762;44.822;2023-06-04T07:52:40;7.93;;;4.20;;
75997;SDS011;64685;48.762;44.822;2023-06-04T07:57:44;9.07;;;4.75;;
75997;SDS011;64685;48.762;44.822;2023-06-04T08:02:47;11.52;;;4.80;;
75997;SDS011;64685;48.762;44.822;2023-06-04T08:07:50;8.90;;;4.68;;
75997;SDS011;64685;48.762;44.822;2023-06-04T08:17:55;9.75;;;4.70;;
75997;SDS011;64685;48.762;44.822;2023-06-04T08:23:18;17.23;;;6.75;;
75997;SDS011;64685;48.762;44.822;2023-06-04T08:28:34;13.63;;;7.03;;
75997;SDS011;64685;48.762;44.822;2023-06-04T08:33:57;12.43;;;6.15;;
75997;SDS011;64685;48.762;44.822;2023-06-04T08:39:01;10.98;;;5.88;;
75997;SDS011;64685;48.762;44.822;2023-06-04T08:44:04;9.43;;;4.20;;
75997;SDS011;64685;48.762;44.822;2023-06-04T08:49:08;6.63;;;3.55;;
75997;SDS011;64685;48.762;44.822;2023-06-04T08:54:11;9.45;;;3.88;;
75997;SDS011;64685;48.762;44.822;2023-06-04T08:59:16;7.10;;;4.03;;
75997;SDS011;64685;48.762;44.822;2023-06-04T09:04:18;7.97;;;4.65;;
75997;SDS011;64685;48.762;44.822;2023-06-04T09:09:21;9.38;;;4.35;;
75997;SDS011;64685;48.762;44.822;2023-06-04T09:14:25;8.52;;;4.15;;
75997;SDS011;64685;48.762;44.822;2023-06-04T09:24:43;9.15;;;4.25;;
75997;SDS011;64685;48.762;44.822;2023-06-04T09:29:55;8.55;;;4.40;;
75997;SDS011;64685;48.762;44.822;2023-06-04T09:40:37;8.60;;;4.55;;
75997;SDS011;64685;48.762;44.822;2023-06-04T09:45:40;8.88;;;4.50;;
75997;SDS011;64685;48.762;44.822;2023-06-04T09:56:08;9.25;;;4.97;;
75997;SDS011;64685;48.762;44.822;2023-06-04T10:01:12;9.50;;;5.15;;
75997;SDS011;64685;48.762;44.822;2023-06-04T10:06:15;10.27;;;5.03;;
75997;SDS011;64685;48.762;44.822;2023-06-04T10:11:25;8.18;;;5.15;;
75997;SDS011;64685;48.762;44.822;2023-06-04T10:16:33;12.30;;;6.18;;
75997;SDS011;64685;48.762;44.822;2023-06-04T10:21:38;10.65;;;5.57;;
75997;SDS011;64685;48.762;44.822;2023-06-04T10:26:41;8.23;;;4.30;;
75997;SDS011;64685;48.762;44.822;2023-06-04T10:31:44;10.35;;;4.70;;
75997;SDS011;64685;48.762;44.822;2023-06-04T10:36:47;8.13;;;4.22;;
75997;SDS011;64685;48.762;44.822;2023-06-04T10:47:05;7.78;;;4.03;;
75997;SDS011;64685;48.762;44.822;2023-06-04T10:52:11;9.95;;;4.70;;
75997;SDS011;64685;48.762;44.822;2023-06-04T10:57:17;9.32;;;4.07;;
75997;SDS011;64685;48.762;44.822;2023-06-04T11:02:20;10.10;;;4.45;;
75997;SDS011;64685;48.762;44.822;2023-06-04T11:12:25;12.18;;;7.05;;
75997;SDS011;64685;48.762;44.822;2023-06-04T11:17:28;7.32;;;4.07;;
75997;SDS011;64685;48.762;44.822;2023-06-04T11:22:32;7.78;;;3.90;;
75997;SDS011;64685;48.762;44.822;2023-06-04T11:27:37;8.30;;;3.45;;
75997;SDS011;64685;48.762;44.822;2023-06-04T11:32:41;9.30;;;4.43;;
75997;SDS011;64685;48.762;44.822;2023-06-04T11:37:52;7.32;;;4.57;;
75997;SDS011;64685;48.762;44.822;2023-06-04T11:42:56;6.47;;;3.65;;
75997;SDS011;64685;48.762;44.822;2023-06-04T11:47:59;6.50;;;3.25;;
75997;SDS011;64685;48.762;44.822;2023-06-04T11:53:02;7.57;;;3.67;;
75997;SDS011;64685;48.762;44.822;2023-06-04T11:58:05;6.70;;;3.33;;
75997;SDS011;64685;48.762;44.822;2023-06-04T12:03:07;9.15;;;4.13;;
75997;SDS011;64685;48.762;44.822;2023-06-04T12:08:10;9.10;;;4.15;;
75997;SDS011;64685;48.762;44.822;2023-06-04T12:13:13;8.45;;;3.60;;
75997;SDS011;64685;48.762;44.822;2023-06-04T12:18:23;8.32;;;3.78;;
75997;SDS011;64685;48.762;44.822;2023-06-04T12:23:26;11.30;;;3.47;;
75997;SDS011;64685;48.762;44.822;2023-06-04T12:28:29;6.85;;;3.17;;
75997;SDS011;64685;48.762;44.822;2023-06-04T12:33:31;5.38;;;2.80;;
75997;SDS011;64685;48.762;44.822;2023-06-04T12:38:34;7.25;;;3.00;;
75997;SDS011;64685;48.762;44.822;2023-06-04T12:43:36;6.85;;;3.17;;
75997;SDS011;64685;48.762;44.822;2023-06-04T12:48:39;6.03;;;2.80;;
75997;SDS011;64685;48.762;44.822;2023-06-04T12:53:42;7.80;;;3.08;;
75997;SDS011;64685;48.762;44.822;2023-06-04T12:58:45;9.13;;;2.90;;
75997;SDS011;64685;48.762;44.822;2023-06-04T13:03:47;12.00;;;6.07;;
75997;SDS011;64685;48.762;44.822;2023-06-04T13:08:50;10.07;;;3.95;;
75997;SDS011;64685;48.762;44.822;2023-06-04T13:13:53;6.88;;;3.42;;
75997;SDS011;64685;48.762;44.822;2023-06-04T13:18:55;11.52;;;5.75;;
75997;SDS011;64685;48.762;44.822;2023-06-04T13:23:58;6.78;;;3.25;;
75997;SDS011;64685;48.762;44.822;2023-06-04T13:29:00;17.45;;;9.45;;
75997;SDS011;64685;48.762;44.822;2023-06-04T13:34:03;9.35;;;4.93;;
75997;SDS011;64685;48.762;44.822;2023-06-04T13:39:23;6.63;;;3.22;;
75997;SDS011;64685;48.762;44.822;2023-06-04T13:44:25;8.23;;;4.68;;
75997;SDS011;64685;48.762;44.822;2023-06-04T13:49:33;9.52;;;3.78;;
75997;SDS011;64685;48.762;44.822;2023-06-04T13:54:36;9.32;;;4.05;;
75997;SDS011;64685;48.762;44.822;2023-06-04T13:59:39;11.02;;;5.47;;
75997;SDS011;64685;48.762;44.822;2023-06-04T14:04:42;10.52;;;4.38;;
75997;SDS011;64685;48.762;44.822;2023-06-04T14:09:44;11.30;;;4.90;;
75997;SDS011;64685;48.762;44.822;2023-06-04T14:14:47;10.73;;;3.50;;
75997;SDS011;64685;48.762;44.822;2023-06-04T14:19:49;7.55;;;3.60;;
75997;SDS011;64685;48.762;44.822;2023-06-04T14:24:52;13.07;;;4.70;;
75997;SDS011;64685;48.762;44.822;2023-06-04T14:29:54;7.15;;;4.03;;
75997;SDS011;64685;48.762;44.822;2023-06-04T14:34:57;11.38;;;4.40;;
75997;SDS011;64685;48.762;44.822;2023-06-04T14:39:59;6.95;;;3.03;;
75997;SDS011;64685;48.762;44.822;2023-06-04T14:45:03;8.57;;;3.90;;
75997;SDS011;64685;48.762;44.822;2023-06-04T14:50:06;8.68;;;4.10;;
75997;SDS011;64685;48.762;44.822;2023-06-04T14:55:09;10.80;;;3.45;;
75997;SDS011;64685;48.762;44.822;2023-06-04T15:00:12;6.88;;;2.83;;
75997;SDS011;64685;48.762;44.822;2023-06-04T15:05:14;6.55;;;2.80;;
75997;SDS011;64685;48.762;44.822;2023-06-04T15:10:17;9.45;;;3.90;;
75997;SDS011;64685;48.762;44.822;2023-06-04T15:20:22;7.13;;;2.90;;
75997;SDS011;64685;48.762;44.822;2023-06-04T15:25:27;13.15;;;4.55;;
75997;SDS011;64685;48.762;44.822;2023-06-04T15:30:31;10.52;;;3.90;;
75997;SDS011;64685;48.762;44.822;2023-06-04T15:35:34;12.35;;;4.95;;
75997;SDS011;64685;48.762;44.822;2023-06-04T15:40:36;9.02;;;3.58;;
75997;SDS011;64685;48.762;44.822;2023-06-04T15:45:39;19.77;;;8.70;;
75997;SDS011;64685;48.762;44.822;2023-06-04T15:50:41;21.10;;;10.93;;
75997;SDS011;64685;48.762;44.822;2023-06-04T15:55:44;16.70;;;8.65;;
75997;SDS011;64685;48.762;44.822;2023-06-04T16:00:47;14.45;;;7.93;;
75997;SDS011;64685;48.762;44.822;2023-06-04T16:05:49;22.60;;;12.30;;
75997;SDS011;64685;48.762;44.822;2023-06-04T16:10:51;19.08;;;8.05;;
75997;SDS011;64685;48.762;44.822;2023-06-04T16:15:55;26.40;;;16.25;;
75997;SDS011;64685;48.762;44.822;2023-06-04T16:20:58;16.77;;;8.73;;
75997;SDS011;64685;48.762;44.822;2023-06-04T16:26:00;13.25;;;6.05;;
75997;SDS011;64685;48.762;44.822;2023-06-04T16:31:03;22.40;;;11.40;;
75997;SDS011;64685;48.762;44.822;2023-06-04T16:36:06;22.98;;;10.00;;
75997;SDS011;64685;48.762;44.822;2023-06-04T16:41:08;17.50;;;8.95;;
75997;SDS011;64685;48.762;44.822;2023-06-04T16:46:11;14.60;;;7.53;;
75997;SDS011;64685;48.762;44.822;2023-06-04T16:51:14;9.48;;;5.07;;
75997;SDS011;64685;48.762;44.822;2023-06-04T16:56:16;9.85;;;4.50;;
75997;SDS011;64685;48.762;44.822;2023-06-04T17:01:19;9.93;;;4.45;;
75997;SDS011;64685;48.762;44.822;2023-06-04T17:06:21;10.40;;;5.45;;
75997;SDS011;64685;48.762;44.822;2023-06-04T17:11:24;11.05;;;4.93;;
75997;SDS011;64685;48.762;44.822;2023-06-04T17:16:26;19.63;;;10.18;;
75997;SDS011;64685;48.762;44.822;2023-06-04T17:21:29;18.85;;;10.70;;
75997;SDS011;64685;48.762;44.822;2023-06-04T17:26:31;26.73;;;16.50;;
75997;SDS011;64685;48.762;44.822;2023-06-04T17:31:34;29.08;;;19.40;;
75997;SDS011;64685;48.762;44.822;2023-06-04T17:36:36;21.33;;;13.93;;
75997;SDS011;64685;48.762;44.822;2023-06-04T17:41:39;10.32;;;6.22;;
75997;SDS011;64685;48.762;44.822;2023-06-04T17:46:42;6.85;;;2.97;;
75997;SDS011;64685;48.762;44.822;2023-06-04T17:51:44;6.50;;;3.20;;
75997;SDS011;64685;48.762;44.822;2023-06-04T17:56:47;7.03;;;2.63;;
75997;SDS011;64685;48.762;44.822;2023-06-04T18:01:49;8.38;;;3.17;;
75997;SDS011;64685;48.762;44.822;2023-06-04T18:06:53;11.48;;;4.22;;
75997;SDS011;64685;48.762;44.822;2023-06-04T18:11:55;7.53;;;2.97;;
75997;SDS011;64685;48.762;44.822;2023-06-04T18:16:58;12.73;;;5.68;;
75997;SDS011;64685;48.762;44.822;2023-06-04T18:22:00;9.80;;;4.13;;
75997;SDS011;64685;48.762;44.822;2023-06-04T18:27:03;8.23;;;3.85;;
75997;SDS011;64685;48.762;44.822;2023-06-04T18:32:06;8.70;;;3.28;;
75997;SDS011;64685;48.762;44.822;2023-06-04T18:37:09;8.25;;;2.78;;
75997;SDS011;64685;48.762;44.822;2023-06-04T18:42:12;7.65;;;3.15;;
75997;SDS011;64685;48.762;44.822;2023-06-04T18:47:31;6.80;;;2.90;;
75997;SDS011;64685;48.762;44.822;2023-06-04T18:52:33;12.18;;;4.85;;
75997;SDS011;64685;48.762;44.822;2023-06-04T18:57:39;8.15;;;3.88;;
75997;SDS011;64685;48.762;44.822;2023-06-04T19:02:42;8.90;;;3.83;;
75997;SDS011;64685;48.762;44.822;2023-06-04T19:07:44;12.98;;;5.20;;
75997;SDS011;64685;48.762;44.822;2023-06-04T19:12:47;13.98;;;5.75;;
75997;SDS011;64685;48.762;44.822;2023-06-04T19:17:50;14.38;;;6.85;;
75997;SDS011;64685;48.762;44.822;2023-06-04T19:22:53;30.58;;;14.05;;
75997;SDS011;64685;48.762;44.822;2023-06-04T19:27:55;40.22;;;22.42;;
75997;SDS011;64685;48.762;44.822;2023-06-04T19:32:58;32.05;;;13.95;;
75997;SDS011;64685;48.762;44.822;2023-06-04T19:38:00;18.20;;;8.55;;
75997;SDS011;64685;48.762;44.822;2023-06-04T19:43:04;8.55;;;3.40;;
75997;SDS011;64685;48.762;44.822;2023-06-04T19:48:07;12.73;;;5.43;;
75997;SDS011;64685;48.762;44.822;2023-06-04T19:53:11;15.55;;;7.93;;
75997;SDS011;64685;48.762;44.822;2023-06-04T19:58:13;12.77;;;5.15;;
75997;SDS011;64685;48.762;44.822;2023-06-04T20:03:17;10.20;;;4.30;;
75997;SDS011;64685;48.762;44.822;2023-06-04T20:08:19;8.52;;;4.18;;
75997;SDS011;64685;48.762;44.822;2023-06-04T20:13:22;8.65;;;3.72;;
75997;SDS011;64685;48.762;44.822;2023-06-04T20:18:24;8.57;;;3.30;;
75997;SDS011;64685;48.762;44.822;2023-06-04T20:23:30;14.05;;;6.47;;
75997;SDS011;64685;48.762;44.822;2023-06-04T20:28:33;28.63;;;13.27;;
75997;SDS011;64685;48.762;44.822;2023-06-04T20:33:35;34.30;;;14.02;;
75997;SDS011;64685;48.762;44.822;2023-06-04T20:38:39;42.20;;;24.02;;
75997;SDS011;64685;48.762;44.822;2023-06-04T20:43:45;29.15;;;17.65;;
75997;SDS011;64685;48.762;44.822;2023-06-04T20:48:48;29.05;;;18.17;;
75997;SDS011;64685;48.762;44.822;2023-06-04T20:53:51;35.08;;;21.40;;
75997;SDS011;64685;48.762;44.822;2023-06-04T20:58:54;14.10;;;7.38;;
75997;SDS011;64685;48.762;44.822;2023-06-04T21:03:57;8.73;;;4.18;;
75997;SDS011;64685;48.762;44.822;2023-06-04T21:09:03;11.85;;;4.00;;
75997;SDS011;64685;48.762;44.822;2023-06-04T21:14:07;14.25;;;6.32;;
75997;SDS011;64685;48.762;44.822;2023-06-04T21:19:10;7.90;;;2.40;;
75997;SDS011;64685;48.762;44.822;2023-06-04T21:24:12;6.65;;;2.03;;
75997;SDS011;64685;48.762;44.822;2023-06-04T21:29:16;5.40;;;1.67;;
75997;SDS011;64685;48.762;44.822;2023-06-04T21:34:18;4.22;;;1.80;;
75997;SDS011;64685;48.762;44.822;2023-06-04T21:39:20;3.92;;;1.83;;
75997;SDS011;64685;48.762;44.822;2023-06-04T21:44:23;4.93;;;2.38;;
75997;SDS011;64685;48.762;44.822;2023-06-04T21:49:26;6.53;;;2.33;;
75997;SDS011;64685;48.762;44.822;2023-06-04T21:54:29;6.55;;;2.25;;
75997;SDS011;64685;48.762;44.822;2023-06-04T21:59:32;4.95;;;1.90;;
75997;SDS011;64685;48.762;44.822;2023-06-04T22:04:34;8.63;;;3.30;;
75997;SDS011;64685;48.762;44.822;2023-06-04T22:09:37;10.20;;;3.72;;
75997;SDS011;64685;48.762;44.822;2023-06-04T22:14:39;9.20;;;2.95;;
75997;SDS011;64685;48.762;44.822;2023-06-04T22:19:42;6.50;;;2.20;;
75997;SDS011;64685;48.762;44.822;2023-06-04T22:24:44;5.05;;;1.90;;
75997;SDS011;64685;48.762;44.822;2023-06-04T22:29:47;14.88;;;6.50;;
75997;SDS011;64685;48.762;44.822;2023-06-04T22:34:50;16.95;;;7.13;;
75997;SDS011;64685;48.762;44.822;2023-06-04T22:39:52;9.02;;;3.40;;
75997;SDS011;64685;48.762;44.822;2023-06-04T22:44:56;14.25;;;6.53;;
75997;SDS011;64685;48.762;44.822;2023-06-04T22:49:58;8.77;;;2.95;;
75997;SDS011;64685;48.762;44.822;2023-06-04T22:55:00;5.20;;;1.90;;
75997;SDS011;64685;48.762;44.822;2023-06-04T23:00:04;8.75;;;2.22;;
75997;SDS011;64685;48.762;44.822;2023-06-04T23:05:08;5.55;;;2.35;;
75997;SDS011;64685;48.762;44.822;2023-06-04T23:10:11;5.78;;;1.92;;
75997;SDS011;64685;48.762;44.822;2023-06-04T23:15:18;4.13;;;1.55;;
75997;SDS011;64685;48.762;44.822;2023-06-04T23:20:23;8.45;;;3.05;;
75997;SDS011;64685;48.762;44.822;2023-06-04T23:25:25;9.38;;;3.28;;
75997;SDS011;64685;48.762;44.822;2023-06-04T23:30:28;8.60;;;3.33;;
75997;SDS011;64685;48.762;44.822;2023-06-04T23:35:30;16.08;;;5.45;;
75997;SDS011;64685;48.762;44.822;2023-06-04T23:40:33;10.38;;;2.80;;
75997;SDS011;64685;48.762;44.822;2023-06-04T23:45:35;5.75;;;1.52;;
75997;SDS011;64685;48.762;44.822;2023-06-04T23:50:38;8.20;;;2.53;;
75997;SDS011;64685;48.762;44.822;2023-06-04T23:55:40;4.18;;;2.00;;
